Amity, Maine
Current Conditions -  °F | °C
As of 9:19 PM on Wednesday 22 Oct 2014 (Local Time) from KHUL Reporting Station
Overcast Overcast  
Wind Chill: 37°   Ceiling: 1200
Heat Index: 43°   Visibility: 10mi
Dew Point: 40°   Wind: 12mph
Humidity: 89%   Direction: 20°NNE
Pressure: 30.25"   Gusts: NA
Location:  45.8952°N, 67.8479°W
Report Text: KHUL 230119Z AUTO 02010KT 10SM OVC012 06/04 A3025 RMK AO2 RAB0059E15 P0000 T00610044
Loading
Personal Weather Stations






























Interactive Weather Map New forecast layout! Learn more

10-Day Weather Forecast

Advertisements
Track Severe Weather on mobile